createdAt,value
2019-04-23T00:01:41.859Z,27.70
2019-04-23T00:04:10.174Z,27.10
2019-04-23T00:07:12.871Z,28.67
2019-04-23T00:09:27.698Z,28.77
2019-04-23T00:11:51.665Z,22.97
2019-04-23T00:14:35.331Z,28.03
2019-04-23T00:16:59.202Z,27.50
2019-04-23T00:19:37.112Z,23.83
2019-04-23T00:22:36.621Z,27.33
2019-04-23T00:25:25.680Z,24.83
2019-04-23T00:30:12.959Z,23.70
2019-04-23T00:32:42.182Z,31.23
2019-04-23T00:35:12.566Z,29.67
2019-04-23T00:37:48.239Z,38.77
2019-04-23T00:40:19.095Z,52.37
2019-04-23T00:42:53.250Z,36.57
2019-04-23T00:45:35.909Z,29.27
2019-04-23T00:47:55.045Z,29.77
2019-04-23T00:50:38.409Z,31.73
2019-04-23T00:53:04.252Z,37.83
2019-04-23T00:55:43.058Z,27.97
2019-04-23T01:00:46.022Z,37.10
2019-04-23T01:03:27.111Z,32.87
2019-04-23T01:05:46.984Z,27.90
2019-04-23T01:08:26.477Z,29.83
2019-04-23T01:13:37.841Z,34.33
2019-04-23T01:18:54.585Z,31.70
2019-04-23T01:21:24.263Z,32.10
2019-04-23T01:24:25.049Z,32.27
2019-04-23T01:27:53.047Z,33.80
2019-04-23T01:30:11.400Z,39.60
2019-04-23T01:37:44.803Z,33.97
2019-04-23T01:40:35.167Z,34.17
2019-04-23T01:42:45.768Z,33.40
2019-04-23T01:45:24.195Z,32.10
2019-04-23T01:47:50.185Z,34.87
2019-04-23T01:52:59.279Z,37.87
2019-04-23T01:58:23.871Z,33.33
2019-04-23T02:03:12.961Z,40.60
2019-04-23T02:05:41.569Z,38.13
2019-04-23T02:08:14.546Z,33.73
2019-04-23T02:10:53.145Z,36.67
2019-04-23T02:13:25.352Z,37.00
2019-04-23T02:16:05.121Z,36.50
2019-04-23T02:18:23.371Z,40.60
2019-04-23T02:20:59.016Z,39.07
2019-04-23T02:28:56.215Z,43.43
2019-04-23T02:31:40.818Z,41.73
2019-04-23T02:36:26.417Z,40.63
2019-04-23T02:38:55.465Z,44.40
2019-04-23T02:44:13.194Z,35.17
2019-04-23T02:46:33.972Z,37.43
2019-04-23T02:51:43.857Z,39.03
2019-04-23T03:01:57.920Z,34.87
2019-04-23T03:04:34.929Z,38.03
2019-04-23T03:07:01.081Z,38.73
2019-04-23T03:12:06.374Z,38.87
2019-04-23T03:14:33.436Z,34.90
2019-04-23T03:17:13.120Z,44.67
2019-04-23T03:20:15.144Z,38.33
2019-04-23T03:22:56.982Z,38.27
2019-04-23T03:25:26.159Z,41.77
2019-04-23T03:32:30.795Z,42.27
2019-04-23T03:38:39.416Z,40.13
2019-04-23T03:41:06.997Z,43.67
2019-04-23T03:43:33.330Z,48.77
2019-04-23T03:46:16.179Z,42.23
2019-04-23T03:48:41.690Z,44.93
2019-04-23T03:51:03.348Z,45.40
2019-04-23T03:53:52.443Z,53.50
2019-04-23T03:56:38.043Z,47.07
2019-04-23T03:58:42.741Z,51.53
2019-04-23T04:01:25.240Z,40.67
2019-04-23T04:06:33.778Z,47.57
2019-04-23T04:14:15.996Z,47.60
2019-04-23T04:16:34.314Z,42.30
2019-04-23T04:19:22.594Z,44.83
2019-04-23T04:24:22.525Z,47.30
2019-04-23T04:41:58.849Z,45.83
2019-04-23T04:46:58.691Z,42.87
2019-04-23T04:49:53.340Z,44.20
2019-04-23T04:54:29.105Z,49.40
2019-04-23T04:57:28.361Z,36.13
2019-04-23T05:00:01.798Z,59.43
2019-04-23T05:02:28.321Z,43.23
2019-04-23T05:05:02.177Z,42.10
2019-04-23T05:07:40.235Z,43.53
2019-04-23T05:10:10.572Z,43.87
2019-04-23T05:12:32.422Z,39.53
2019-04-23T05:15:03.054Z,34.47
2019-04-23T05:18:08.100Z,47.00
2019-04-23T05:20:37.018Z,31.47
2019-04-23T05:23:16.448Z,28.83
2019-04-23T05:25:40.069Z,36.07
2019-04-23T05:30:44.519Z,26.87
2019-04-23T05:33:18.624Z,28.77
2019-04-23T05:43:30.813Z,36.75
2019-04-23T05:45:57.399Z,27.50
2019-04-23T05:48:50.875Z,27.52
2019-04-23T05:51:06.089Z,35.50
2019-04-23T05:53:42.546Z,33.95
2019-04-23T05:58:45.375Z,26.48
2019-04-23T06:04:24.606Z,26.45
2019-04-23T06:06:54.134Z,21.17
2019-04-23T06:09:14.081Z,27.00
2019-04-23T06:14:19.018Z,26.48
2019-04-23T06:17:02.128Z,23.27
2019-04-23T06:24:44.267Z,29.42
2019-04-23T06:32:06.130Z,29.30
2019-04-23T06:34:42.803Z,21.40
2019-04-23T06:37:46.601Z,21.75
2019-04-23T06:42:20.853Z,26.75
2019-04-23T06:47:24.825Z,23.10
2019-04-23T06:49:55.687Z,16.95
2019-04-23T06:52:43.761Z,17.25
2019-04-23T06:55:01.097Z,16.25
2019-04-23T06:57:38.509Z,15.08
2019-04-23T07:00:30.719Z,15.83
2019-04-23T07:02:49.543Z,17.75
2019-04-23T07:05:20.709Z,18.27
2019-04-23T07:07:50.291Z,21.75
2019-04-23T07:10:26.654Z,18.42
2019-04-23T07:12:59.700Z,21.77
2019-04-23T07:15:46.525Z,19.23
2019-04-23T07:18:04.141Z,18.50
2019-04-23T07:20:33.566Z,15.98
2019-04-23T07:25:44.276Z,17.32
2019-04-23T07:28:14.153Z,16.97
2019-04-23T07:30:58.830Z,53.78
2019-04-23T07:33:19.072Z,44.27
2019-04-23T07:35:56.387Z,20.05
2019-04-23T07:39:01.631Z,23.40
2019-04-23T07:41:52.938Z,12.07
2019-04-23T07:44:29.484Z,17.45
2019-04-23T07:47:20.472Z,19.37
2019-04-23T07:50:00.667Z,13.30
2019-04-23T07:55:02.616Z,19.90
2019-04-23T07:57:25.133Z,16.50
2019-04-23T08:00:00.467Z,15.13
2019-04-23T08:02:43.763Z,14.40
2019-04-23T08:07:44.105Z,12.53
2019-04-23T08:10:14.189Z,15.48
2019-04-23T08:12:46.976Z,12.30
2019-04-23T08:15:15.129Z,12.30
2019-04-23T08:17:50.493Z,19.50
2019-04-23T08:20:26.854Z,21.93
2019-04-23T08:22:54.878Z,16.23
2019-04-23T08:25:56.473Z,14.73
2019-04-23T08:28:25.484Z,14.85
2019-04-23T08:30:53.719Z,15.38
2019-04-23T08:33:23.438Z,12.00
2019-04-23T08:35:58.465Z,6.67
2019-04-23T08:38:30.880Z,26.45
2019-04-23T08:41:12.858Z,9.73
2019-04-23T08:43:40.759Z,10.38
2019-04-23T08:46:33.525Z,14.15
2019-04-23T08:49:06.536Z,9.30
2019-04-23T08:51:45.901Z,19.75
2019-04-23T08:54:06.276Z,8.53
2019-04-23T08:56:46.113Z,14.70
2019-04-23T08:59:22.839Z,13.38
2019-04-23T09:02:00.699Z,10.72
2019-04-23T09:04:18.528Z,12.63
2019-04-23T09:07:00.239Z,12.53
2019-04-23T09:09:27.882Z,8.78
2019-04-23T09:11:54.368Z,10.10
2019-04-23T09:14:28.264Z,13.03
2019-04-23T09:17:04.899Z,19.87
2019-04-23T09:19:46.046Z,11.55
2019-04-23T09:22:20.889Z,12.03
2019-04-23T09:27:22.515Z,13.83
2019-04-23T09:30:00.945Z,10.78
2019-04-23T09:47:00.773Z,12.90
2019-04-23T09:52:09.583Z,11.18
2019-04-23T09:54:41.825Z,18.80
2019-04-23T09:57:06.154Z,12.35
2019-04-23T09:59:47.343Z,13.05
2019-04-23T10:02:08.720Z,12.45
2019-04-23T10:04:33.870Z,10.65
2019-04-23T10:07:07.221Z,11.45
2019-04-23T10:09:30.080Z,13.13
2019-04-23T10:12:02.981Z,12.10
2019-04-23T10:14:34.508Z,8.80
2019-04-23T10:17:06.391Z,11.30
2019-04-23T10:19:37.764Z,11.55
2019-04-23T10:22:11.416Z,12.60
2019-04-23T10:24:45.637Z,11.48
2019-04-23T10:27:19.004Z,10.43
2019-04-23T10:29:49.929Z,8.35
2019-04-23T10:32:21.846Z,13.13
2019-04-23T10:35:03.577Z,8.08
2019-04-23T10:37:32.950Z,13.68
2019-04-23T10:40:01.233Z,11.57
2019-04-23T10:42:30.722Z,10.93
2019-04-23T10:45:47.909Z,9.70
2019-04-23T10:49:02.591Z,16.35
2019-04-23T10:51:33.859Z,11.93
2019-04-23T10:54:25.080Z,12.37
2019-04-23T10:59:35.057Z,12.50
2019-04-23T11:10:03.754Z,15.55
2019-04-23T11:13:10.722Z,14.75
2019-04-23T11:18:02.880Z,17.87
2019-04-23T11:20:54.071Z,13.62
2019-04-23T11:23:27.654Z,17.45
2019-04-23T11:26:01.227Z,12.98
2019-04-23T11:31:13.890Z,12.30
2019-04-23T11:33:43.071Z,20.17
2019-04-23T11:36:49.722Z,20.92
2019-04-23T11:41:51.736Z,11.80
2019-04-23T11:49:44.854Z,11.85
2019-04-23T11:52:05.139Z,14.00
2019-04-23T11:54:31.026Z,13.60
2019-04-23T11:57:16.396Z,12.63
2019-04-23T12:02:36.981Z,21.97
2019-04-23T12:05:20.470Z,16.62
2019-04-23T12:08:26.794Z,14.00
2019-04-23T12:14:13.405Z,16.48
2019-04-23T12:16:47.249Z,22.93
2019-04-23T12:19:51.338Z,15.35
2019-04-23T12:21:58.986Z,12.75
2019-04-23T12:24:50.617Z,12.60
2019-04-23T12:27:00.685Z,14.78
2019-04-23T12:29:33.617Z,12.75
2019-04-23T12:32:45.153Z,15.83
2019-04-23T12:37:44.914Z,14.05
2019-04-23T12:40:24.941Z,17.87
2019-04-23T12:43:12.736Z,14.87
2019-04-23T12:45:31.736Z,14.50
2019-04-23T12:48:08.330Z,16.67
2019-04-23T12:53:12.481Z,14.50
2019-04-23T12:55:40.396Z,19.50
2019-04-23T12:58:15.746Z,17.42
2019-04-23T13:00:44.444Z,14.80
2019-04-23T13:03:25.196Z,18.23
2019-04-23T13:05:43.507Z,18.98
2019-04-23T13:08:34.025Z,16.25
2019-04-23T13:10:57.294Z,17.35
2019-04-23T13:16:02.985Z,15.30
2019-04-23T13:18:41.549Z,13.75
2019-04-23T13:21:29.969Z,14.40
2019-04-23T13:23:51.171Z,13.28
2019-04-23T13:26:08.982Z,16.50
2019-04-23T13:28:50.990Z,13.80
2019-04-23T13:31:25.710Z,13.03
2019-04-23T13:33:58.058Z,13.22
2019-04-23T13:36:37.824Z,15.83
2019-04-23T13:39:02.395Z,17.15
2019-04-23T13:41:31.675Z,13.75
2019-04-23T13:44:14.283Z,9.70
2019-04-23T13:46:45.277Z,14.33
2019-04-23T13:49:16.373Z,15.18
2019-04-23T13:51:46.679Z,13.62
2019-04-23T13:54:29.878Z,14.70
2019-04-23T13:59:40.183Z,14.15
2019-04-23T14:02:09.189Z,15.13
2019-04-23T14:07:30.378Z,17.12
2019-04-23T14:10:11.783Z,19.32
2019-04-23T14:12:31.988Z,13.15
2019-04-23T14:15:06.457Z,14.93
2019-04-23T14:17:40.885Z,20.05
2019-04-23T14:20:08.645Z,13.03
2019-04-23T14:25:10.094Z,17.80
2019-04-23T14:28:01.379Z,34.03
2019-04-23T14:30:38.167Z,19.32
2019-04-23T14:32:54.327Z,12.95
2019-04-23T14:35:28.444Z,11.93
2019-04-23T14:38:11.314Z,12.15
2019-04-23T14:40:34.346Z,13.00
2019-04-23T14:46:15.681Z,18.80
2019-04-23T14:51:00.299Z,12.85
2019-04-23T14:53:24.536Z,11.60
2019-04-23T14:56:20.182Z,11.35
2019-04-23T15:01:35.818Z,17.25
2019-04-23T15:04:25.226Z,9.00
2019-04-23T15:09:13.973Z,13.32
2019-04-23T15:11:52.692Z,12.40
2019-04-23T15:14:18.968Z,18.02
2019-04-23T15:16:55.104Z,19.30
2019-04-23T15:19:37.362Z,20.62
2019-04-23T15:22:04.808Z,14.05
2019-04-23T15:29:27.447Z,13.00
2019-04-23T15:32:21.652Z,14.90
2019-04-23T15:34:45.322Z,14.50
2019-04-23T15:37:33.872Z,14.25
2019-04-23T15:39:56.624Z,18.48
2019-04-23T15:42:26.135Z,18.60
2019-04-23T15:52:46.236Z,12.88
2019-04-23T16:00:05.735Z,20.37
2019-04-23T16:02:15.086Z,15.45
2019-04-23T16:04:46.905Z,15.72
2019-04-23T16:07:35.549Z,17.15
2019-04-23T16:10:25.918Z,15.38
2019-04-23T16:12:56.573Z,14.28
2019-04-23T16:15:27.076Z,16.93
2019-04-23T16:18:18.464Z,14.43
2019-04-23T16:20:51.605Z,16.35
2019-04-23T16:23:17.239Z,15.13
2019-04-23T16:25:49.837Z,13.65
2019-04-23T16:28:53.409Z,23.95
2019-04-23T16:31:13.009Z,17.65
2019-04-23T16:33:51.118Z,13.60
2019-04-23T16:36:19.672Z,17.40
2019-04-23T16:38:52.223Z,18.95
2019-04-23T16:41:24.373Z,13.25
2019-04-23T16:43:57.723Z,16.70
2019-04-23T16:46:27.231Z,24.65
2019-04-23T16:49:10.221Z,25.72
2019-04-23T16:54:10.040Z,15.28
2019-04-23T16:56:55.393Z,17.35
2019-04-23T17:01:50.467Z,17.02
2019-04-23T17:04:28.609Z,15.40
2019-04-23T17:09:29.290Z,14.03
2019-04-23T17:14:37.265Z,18.60
2019-04-23T17:16:59.958Z,14.28
2019-04-23T17:20:04.342Z,25.75
2019-04-23T17:22:09.909Z,22.93
2019-04-23T17:24:55.651Z,16.97
2019-04-23T17:29:55.648Z,25.97
2019-04-23T17:32:27.950Z,16.70
2019-04-23T17:37:57.787Z,22.48
2019-04-23T17:40:32.484Z,15.90
2019-04-23T17:43:01.470Z,15.78
2019-04-23T17:50:56.845Z,20.08
2019-04-23T17:53:25.288Z,29.30
2019-04-23T17:56:08.109Z,25.40
2019-04-23T18:03:50.219Z,15.68
2019-04-23T18:08:49.394Z,21.73
2019-04-23T18:11:31.355Z,23.20
2019-04-23T18:13:57.404Z,23.45
2019-04-23T18:16:35.473Z,30.43
2019-04-23T18:21:58.953Z,21.52
2019-04-23T18:27:20.828Z,26.30
2019-04-23T18:29:45.893Z,53.08
2019-04-23T18:32:30.214Z,20.88
2019-04-23T18:37:30.032Z,35.68
2019-04-23T18:39:56.551Z,42.30
2019-04-23T18:42:41.742Z,37.28
2019-04-23T18:45:22.936Z,20.60
2019-04-23T18:47:48.726Z,29.55
2019-04-23T18:50:29.201Z,39.98
2019-04-23T18:52:55.572Z,50.43
2019-04-23T18:55:45.157Z,57.35
2019-04-23T19:00:45.165Z,37.95
2019-04-23T19:03:34.365Z,26.23
2019-04-23T19:06:18.703Z,21.17
2019-04-23T19:08:59.710Z,22.17
2019-04-23T19:11:51.220Z,28.92
2019-04-23T19:14:23.145Z,40.03
2019-04-23T19:17:07.525Z,56.70
2019-04-23T19:19:19.639Z,27.82
2019-04-23T19:22:12.298Z,46.23
2019-04-23T19:29:43.893Z,27.13
2019-04-23T19:32:00.603Z,25.72
2019-04-23T19:37:35.245Z,25.32
2019-04-23T19:39:45.324Z,26.62
2019-04-23T19:42:15.702Z,22.75
2019-04-23T19:47:27.188Z,20.60
2019-04-23T19:49:51.330Z,26.62
2019-04-23T19:52:34.602Z,22.87
2019-04-23T19:57:33.846Z,22.73
2019-04-23T20:02:55.369Z,25.55
2019-04-23T20:05:05.648Z,25.65
2019-04-23T20:07:52.203Z,28.80
2019-04-23T20:10:03.530Z,21.68
2019-04-23T20:13:01.974Z,23.23
2019-04-23T20:15:13.551Z,27.48
2019-04-23T20:20:25.370Z,29.07
2019-04-23T20:22:51.550Z,24.20
2019-04-23T20:25:53.834Z,30.10
2019-04-23T20:31:24.187Z,36.58
2019-04-23T20:34:02.920Z,25.60
2019-04-23T20:36:32.442Z,26.07
2019-04-23T20:39:03.968Z,21.93
2019-04-23T20:41:55.116Z,24.70
2019-04-23T20:44:40.099Z,27.47
2019-04-23T21:00:09.072Z,27.02
2019-04-23T21:05:27.705Z,28.20
2019-04-23T21:08:26.945Z,28.05
2019-04-23T21:10:41.176Z,27.25
2019-04-23T21:13:27.180Z,43.17
2019-04-23T21:15:46.287Z,35.57
2019-04-23T21:25:47.464Z,30.07
2019-04-23T21:28:37.326Z,23.70
2019-04-23T21:31:09.128Z,26.70
2019-04-23T21:33:43.891Z,24.90
2019-04-23T21:39:20.305Z,27.00
2019-04-23T21:44:33.989Z,25.47
2019-04-23T21:47:09.929Z,25.23
2019-04-23T21:49:56.270Z,26.20
2019-04-23T21:52:11.485Z,30.00
2019-04-23T21:54:44.149Z,37.00
2019-04-23T21:57:15.762Z,33.30
2019-04-23T21:59:52.906Z,28.70
2019-04-23T22:02:23.328Z,24.33
2019-04-23T22:04:52.759Z,27.53
2019-04-23T22:07:29.467Z,23.03
2019-04-23T22:09:57.224Z,23.73
2019-04-23T22:12:34.186Z,25.27
2019-04-23T22:15:04.744Z,29.17
2019-04-23T22:17:39.654Z,24.27
2019-04-23T22:20:21.493Z,25.60
2019-04-23T22:22:56.325Z,26.40
2019-04-23T22:25:13.058Z,36.57
2019-04-23T22:27:54.759Z,28.83
2019-04-23T22:30:30.456Z,31.40
2019-04-23T22:33:03.245Z,23.20
2019-04-23T22:35:34.879Z,27.77
2019-04-23T22:38:13.058Z,29.77
2019-04-23T22:40:34.383Z,29.23
2019-04-23T22:43:20.575Z,25.03
2019-04-23T22:50:59.333Z,33.63
2019-04-23T22:55:57.277Z,30.27
2019-04-23T22:58:27.708Z,27.30
2019-04-23T23:01:45.177Z,30.23
2019-04-23T23:04:08.752Z,29.47
2019-04-23T23:06:49.426Z,26.60
2019-04-23T23:09:23.192Z,29.07
2019-04-23T23:11:50.512Z,30.17
2019-04-23T23:16:50.353Z,34.57
2019-04-23T23:19:46.336Z,34.33
2019-04-23T23:29:27.675Z,36.40
2019-04-23T23:34:54.194Z,26.53
2019-04-23T23:37:07.146Z,37.87
2019-04-23T23:42:18.117Z,30.30
2019-04-23T23:47:14.881Z,27.97
2019-04-23T23:49:56.903Z,28.43
2019-04-23T23:52:25.425Z,32.83
2019-04-23T23:54:59.403Z,32.60
2019-04-23T23:57:23.464Z,35.40
